sensor_id;sensor_type;location;lat;lon;timestamp;pressure;altitude;pressure_sealevel;temperature;humidity
48872;BME280;36154;51.674;7.824;2022-10-16T00:00:32;100305.31;;;21.65;51.18
48872;BME280;36154;51.674;7.824;2022-10-16T00:02:58;100301.81;;;21.66;51.20
48872;BME280;36154;51.674;7.824;2022-10-16T00:05:23;100296.63;;;21.66;51.05
48872;BME280;36154;51.674;7.824;2022-10-16T00:07:49;100305.31;;;21.65;51.23
48872;BME280;36154;51.674;7.824;2022-10-16T00:10:14;100302.72;;;21.65;51.17
48872;BME280;36154;51.674;7.824;2022-10-16T00:12:39;100307.91;;;21.65;51.24
48872;BME280;36154;51.674;7.824;2022-10-16T00:15:05;100310.50;;;21.65;51.18
48872;BME280;36154;51.674;7.824;2022-10-16T00:17:31;100314.75;;;21.66;51.29
48872;BME280;36154;51.674;7.824;2022-10-16T00:19:56;100315.69;;;21.65;51.33
48872;BME280;36154;51.674;7.824;2022-10-16T00:22:22;100311.34;;;21.66;51.17
48872;BME280;36154;51.674;7.824;2022-10-16T00:24:47;100300.16;;;21.65;51.69
48872;BME280;36154;51.674;7.824;2022-10-16T00:27:12;100297.56;;;21.65;51.25
48872;BME280;36154;51.674;7.824;2022-10-16T00:29:38;100305.31;;;21.65;51.17
48872;BME280;36154;51.674;7.824;2022-10-16T00:32:03;100311.34;;;21.66;51.14
48872;BME280;36154;51.674;7.824;2022-10-16T00:34:28;100317.34;;;21.66;51.27
48872;BME280;36154;51.674;7.824;2022-10-16T00:36:54;100307.00;;;21.66;51.23
48872;BME280;36154;51.674;7.824;2022-10-16T00:39:19;100305.31;;;21.65;51.20
48872;BME280;36154;51.674;7.824;2022-10-16T00:41:44;100314.75;;;21.66;51.24
48872;BME280;36154;51.674;7.824;2022-10-16T00:47:24;100312.28;;;21.63;51.25
48872;BME280;36154;51.674;7.824;2022-10-16T00:49:52;100319.16;;;21.64;51.32
48872;BME280;36154;51.674;7.824;2022-10-16T00:52:18;100313.13;;;21.64;51.24
48872;BME280;36154;51.674;7.824;2022-10-16T00:54:46;100312.28;;;21.63;51.44
48872;BME280;36154;51.674;7.824;2022-10-16T00:57:12;100318.25;;;21.65;51.38
48872;BME280;36154;51.674;7.824;2022-10-16T00:59:39;100315.69;;;21.65;51.26
48872;BME280;36154;51.674;7.824;2022-10-16T01:02:07;100313.97;;;21.64;51.22
48872;BME280;36154;51.674;7.824;2022-10-16T01:04:44;100310.53;;;21.64;51.33
48872;BME280;36154;51.674;7.824;2022-10-16T01:12:47;100313.25;;;21.61;51.35
48872;BME280;36154;51.674;7.824;2022-10-16T01:15:29;100320.13;;;21.62;51.50
48872;BME280;36154;51.674;7.824;2022-10-16T01:18:08;100324.44;;;21.61;51.28
48872;BME280;36154;51.674;7.824;2022-10-16T01:20:40;100319.25;;;21.61;51.29
48872;BME280;36154;51.674;7.824;2022-10-16T01:29:06;100308.06;;;21.61;51.39
48872;BME280;36154;51.674;7.824;2022-10-16T01:31:36;100324.44;;;21.61;51.36
48872;BME280;36154;51.674;7.824;2022-10-16T01:34:08;100320.13;;;21.62;51.36
48872;BME280;36154;51.674;7.824;2022-10-16T01:36:41;100331.31;;;21.62;51.48
48872;BME280;36154;51.674;7.824;2022-10-16T01:39:10;100333.94;;;21.61;51.42
48872;BME280;36154;51.674;7.824;2022-10-16T01:41:42;100336.47;;;21.62;51.38
48872;BME280;36154;51.674;7.824;2022-10-16T01:44:11;100342.50;;;21.63;51.41
48872;BME280;36154;51.674;7.824;2022-10-16T01:46:41;100337.31;;;21.63;51.47
48872;BME280;36154;51.674;7.824;2022-10-16T01:49:09;100340.81;;;21.62;51.27
48872;BME280;36154;51.674;7.824;2022-10-16T01:51:36;100332.13;;;21.63;51.30
48872;BME280;36154;51.674;7.824;2022-10-16T01:54:04;100326.97;;;21.63;51.42
48872;BME280;36154;51.674;7.824;2022-10-16T01:56:31;100330.38;;;21.63;51.47
48872;BME280;36154;51.674;7.824;2022-10-16T01:59:03;100330.38;;;21.63;51.44
48872;BME280;36154;51.674;7.824;2022-10-16T02:01:31;100326.97;;;21.63;51.35
48872;BME280;36154;51.674;7.824;2022-10-16T02:04:02;100322.63;;;21.63;51.49
48872;BME280;36154;51.674;7.824;2022-10-16T02:06:30;100326.97;;;21.63;51.45
48872;BME280;36154;51.674;7.824;2022-10-16T02:08:55;100320.94;;;21.62;51.23
48872;BME280;36154;51.674;7.824;2022-10-16T02:11:20;100330.38;;;21.63;51.35
48872;BME280;36154;51.674;7.824;2022-10-16T02:13:59;100332.13;;;21.63;51.43
48872;BME280;36154;51.674;7.824;2022-10-16T02:16:36;100331.31;;;21.62;51.35
48872;BME280;36154;51.674;7.824;2022-10-16T02:19:03;100329.56;;;21.63;51.39
48872;BME280;36154;51.674;7.824;2022-10-16T02:21:36;100326.13;;;21.62;51.21
48872;BME280;36154;51.674;7.824;2022-10-16T02:24:16;100335.56;;;21.63;51.38
48872;BME280;36154;51.674;7.824;2022-10-16T02:26:52;100327.81;;;21.63;51.33
48872;BME280;36154;51.674;7.824;2022-10-16T02:29:23;100324.44;;;21.61;51.50
48872;BME280;36154;51.674;7.824;2022-10-16T02:31:57;100332.13;;;21.63;51.45
48872;BME280;36154;51.674;7.824;2022-10-16T02:34:25;100339.06;;;21.62;51.36
48872;BME280;36154;51.674;7.824;2022-10-16T02:36:53;100333.91;;;21.62;51.36
48872;BME280;36154;51.674;7.824;2022-10-16T02:39:19;100348.50;;;21.63;51.32
48872;BME280;36154;51.674;7.824;2022-10-16T02:41:45;100346.84;;;21.62;51.50
48872;BME280;36154;51.674;7.824;2022-10-16T02:44:10;100353.69;;;21.63;51.35
48872;BME280;36154;51.674;7.824;2022-10-16T02:46:36;100358.84;;;21.63;51.34
48872;BME280;36154;51.674;7.824;2022-10-16T02:49:01;100340.75;;;21.63;51.60
48872;BME280;36154;51.674;7.824;2022-10-16T02:51:26;100348.50;;;21.63;51.27
48872;BME280;36154;51.674;7.824;2022-10-16T02:53:51;100346.84;;;21.62;51.46
48872;BME280;36154;51.674;7.824;2022-10-16T02:56:17;100357.19;;;21.62;51.27
48872;BME280;36154;51.674;7.824;2022-10-16T02:58:42;100356.34;;;21.62;51.36
48872;BME280;36154;51.674;7.824;2022-10-16T03:01:07;100351.09;;;21.63;51.42
48872;BME280;36154;51.674;7.824;2022-10-16T03:03:33;100343.34;;;21.63;51.40
48872;BME280;36154;51.674;7.824;2022-10-16T03:05:58;100346.84;;;21.62;51.43
48872;BME280;36154;51.674;7.824;2022-10-16T03:08:23;100345.13;;;21.61;51.48
48872;BME280;36154;51.674;7.824;2022-10-16T03:10:50;100347.66;;;21.63;51.49
48872;BME280;36154;51.674;7.824;2022-10-16T03:13:16;100339.97;;;21.61;51.28
48872;BME280;36154;51.674;7.824;2022-10-16T03:15:41;100345.13;;;21.61;51.32
48872;BME280;36154;51.674;7.824;2022-10-16T03:18:07;100345.13;;;21.61;51.56
48872;BME280;36154;51.674;7.824;2022-10-16T03:20:32;100345.13;;;21.61;51.56
48872;BME280;36154;51.674;7.824;2022-10-16T03:22:58;100339.97;;;21.61;51.48
48872;BME280;36154;51.674;7.824;2022-10-16T03:25:23;100343.47;;;21.60;51.44
48872;BME280;36154;51.674;7.824;2022-10-16T03:27:49;100340.88;;;21.60;51.62
48872;BME280;36154;51.674;7.824;2022-10-16T03:30:14;100349.47;;;21.61;51.49
48872;BME280;36154;51.674;7.824;2022-10-16T03:32:40;100353.81;;;21.60;51.58
48872;BME280;36154;51.674;7.824;2022-10-16T03:35:05;100348.63;;;21.60;51.52
48872;BME280;36154;51.674;7.824;2022-10-16T03:37:31;100358.13;;;21.60;51.54
48872;BME280;36154;51.674;7.824;2022-10-16T03:39:56;100357.25;;;21.61;51.48
48872;BME280;36154;51.674;7.824;2022-10-16T03:42:21;100358.06;;;21.61;51.58
48872;BME280;36154;51.674;7.824;2022-10-16T03:44:47;100343.47;;;21.60;51.47
48872;BME280;36154;51.674;7.824;2022-10-16T03:47:12;100343.47;;;21.60;51.60
48872;BME280;36154;51.674;7.824;2022-10-16T03:49:37;100342.59;;;21.60;51.48
48872;BME280;36154;51.674;7.824;2022-10-16T03:52:03;100333.09;;;21.60;51.52
48872;BME280;36154;51.674;7.824;2022-10-16T03:54:28;100332.25;;;21.60;51.36
48872;BME280;36154;51.674;7.824;2022-10-16T03:56:54;100336.59;;;21.59;51.48
48872;BME280;36154;51.674;7.824;2022-10-16T03:59:19;100342.59;;;21.60;51.57
48872;BME280;36154;51.674;7.824;2022-10-16T04:01:44;100340.88;;;21.60;51.49
48872;BME280;36154;51.674;7.824;2022-10-16T04:04:10;100352.13;;;21.59;51.60
48872;BME280;36154;51.674;7.824;2022-10-16T04:06:35;100354.69;;;21.59;51.61
48872;BME280;36154;51.674;7.824;2022-10-16T04:09:00;100345.22;;;21.58;51.59
48872;BME280;36154;51.674;7.824;2022-10-16T04:11:26;100354.69;;;21.59;51.61
48872;BME280;36154;51.674;7.824;2022-10-16T04:13:51;100358.16;;;21.58;51.59
48872;BME280;36154;51.674;7.824;2022-10-16T04:16:16;100365.94;;;21.58;51.63
48872;BME280;36154;51.674;7.824;2022-10-16T04:18:42;100362.47;;;21.59;51.61
48872;BME280;36154;51.674;7.824;2022-10-16T04:21:07;100349.72;;;21.53;51.68
48872;BME280;36154;51.674;7.824;2022-10-16T04:23:33;100357.28;;;21.59;51.60
48872;BME280;36154;51.674;7.824;2022-10-16T04:25:59;100363.41;;;21.57;51.62
48872;BME280;36154;51.674;7.824;2022-10-16T04:28:24;100375.44;;;21.58;51.44
48872;BME280;36154;51.674;7.824;2022-10-16T04:30:49;100376.28;;;21.58;51.67
48872;BME280;36154;51.674;7.824;2022-10-16T04:33:15;100368.53;;;21.58;51.63
48872;BME280;36154;51.674;7.824;2022-10-16T04:35:40;100378.88;;;21.58;51.63
48872;BME280;36154;51.674;7.824;2022-10-16T04:38:05;100395.31;;;21.57;51.74
48872;BME280;36154;51.674;7.824;2022-10-16T04:40:30;100386.69;;;21.57;51.67
48872;BME280;36154;51.674;7.824;2022-10-16T04:43:01;100390.16;;;21.57;52.12
48872;BME280;36154;51.674;7.824;2022-10-16T04:45:26;100392.75;;;21.57;51.50
48872;BME280;36154;51.674;7.824;2022-10-16T04:47:51;100395.31;;;21.57;51.63
48872;BME280;36154;51.674;7.824;2022-10-16T04:50:16;100398.75;;;21.58;51.65
48872;BME280;36154;51.674;7.824;2022-10-16T04:52:42;100400.50;;;21.57;51.70
48872;BME280;36154;51.674;7.824;2022-10-16T04:55:07;100402.19;;;21.58;51.61
48872;BME280;36154;51.674;7.824;2022-10-16T04:57:33;100408.25;;;21.57;51.63
48872;BME280;36154;51.674;7.824;2022-10-16T04:59:59;100399.63;;;21.57;51.66
48872;BME280;36154;51.674;7.824;2022-10-16T05:02:24;100403.97;;;21.56;51.73
48872;BME280;36154;51.674;7.824;2022-10-16T05:04:50;100407.41;;;21.57;51.70
48872;BME280;36154;51.674;7.824;2022-10-16T05:07:16;100419.50;;;21.56;51.62
48872;BME280;36154;51.674;7.824;2022-10-16T05:09:41;100420.34;;;21.57;51.68
48872;BME280;36154;51.674;7.824;2022-10-16T05:12:06;100420.34;;;21.57;51.73
48872;BME280;36154;51.674;7.824;2022-10-16T05:14:31;100414.31;;;21.56;51.58
48872;BME280;36154;51.674;7.824;2022-10-16T05:16:57;100411.75;;;21.56;51.66
48872;BME280;36154;51.674;7.824;2022-10-16T05:19:22;100420.34;;;21.57;51.71
48872;BME280;36154;51.674;7.824;2022-10-16T05:21:47;100419.47;;;21.58;51.69
48872;BME280;36154;51.674;7.824;2022-10-16T05:24:12;100416.03;;;21.57;51.75
48872;BME280;36154;51.674;7.824;2022-10-16T05:26:38;100420.34;;;21.57;51.74
48872;BME280;36154;51.674;7.824;2022-10-16T05:29:03;100424.69;;;21.56;51.70
48872;BME280;36154;51.674;7.824;2022-10-16T05:31:29;100436.72;;;21.57;51.68
48872;BME280;36154;51.674;7.824;2022-10-16T05:34:00;100435.03;;;21.56;51.78
48872;BME280;36154;51.674;7.824;2022-10-16T05:36:26;100438.53;;;21.55;51.63
48872;BME280;36154;51.674;7.824;2022-10-16T05:38:52;100446.22;;;21.57;51.76
48872;BME280;36154;51.674;7.824;2022-10-16T05:41:18;100442.84;;;21.55;51.67
48872;BME280;36154;51.674;7.824;2022-10-16T05:43:47;100442.78;;;21.56;51.73
48872;BME280;36154;51.674;7.824;2022-10-16T05:46:12;100446.31;;;21.55;51.66
48872;BME280;36154;51.674;7.824;2022-10-16T05:48:38;100445.38;;;21.56;51.65
48872;BME280;36154;51.674;7.824;2022-10-16T05:51:09;100455.75;;;21.56;51.67
48872;BME280;36154;51.674;7.824;2022-10-16T05:53:36;100454.06;;;21.55;51.68
48872;BME280;36154;51.674;7.824;2022-10-16T05:56:02;100459.25;;;21.55;51.75
48872;BME280;36154;51.674;7.824;2022-10-16T05:58:29;100460.97;;;21.55;51.71
48872;BME280;36154;51.674;7.824;2022-10-16T06:01:00;100467.00;;;21.55;51.70
48872;BME280;36154;51.674;7.824;2022-10-16T06:03:26;100466.09;;;21.56;51.78
48872;BME280;36154;51.674;7.824;2022-10-16T06:05:52;100471.28;;;21.56;51.68
48872;BME280;36154;51.674;7.824;2022-10-16T06:08:18;100473.03;;;21.56;51.68
48872;BME280;36154;51.674;7.824;2022-10-16T06:10:45;100461.84;;;21.55;51.69
48872;BME280;36154;51.674;7.824;2022-10-16T06:13:11;100458.38;;;21.55;51.54
48872;BME280;36154;51.674;7.824;2022-10-16T06:15:38;100476.44;;;21.56;51.71
48872;BME280;36154;51.674;7.824;2022-10-16T06:18:04;100481.63;;;21.56;51.68
48872;BME280;36154;51.674;7.824;2022-10-16T06:20:29;100485.03;;;21.57;51.74
48872;BME280;36154;51.674;7.824;2022-10-16T06:22:55;100490.31;;;21.55;51.74
48872;BME280;36154;51.674;7.824;2022-10-16T06:25:20;100498.00;;;21.57;51.70
48872;BME280;36154;51.674;7.824;2022-10-16T06:27:45;100497.16;;;21.56;51.74
48872;BME280;36154;51.674;7.824;2022-10-16T06:30:10;100497.16;;;21.56;51.71
48872;BME280;36154;51.674;7.824;2022-10-16T06:32:36;100503.16;;;21.57;51.67
48872;BME280;36154;51.674;7.824;2022-10-16T06:35:01;100507.50;;;21.56;51.70
48872;BME280;36154;51.674;7.824;2022-10-16T06:37:26;100516.19;;;21.55;51.74
48872;BME280;36154;51.674;7.824;2022-10-16T06:39:52;100523.03;;;21.56;51.69
48872;BME280;36154;51.674;7.824;2022-10-16T06:42:17;100517.84;;;21.56;51.73
48872;BME280;36154;51.674;7.824;2022-10-16T06:44:43;100523.03;;;21.56;51.80
48872;BME280;36154;51.674;7.824;2022-10-16T06:47:08;100525.63;;;21.56;51.68
48872;BME280;36154;51.674;7.824;2022-10-16T06:49:33;100533.34;;;21.58;51.91
48872;BME280;36154;51.674;7.824;2022-10-16T06:51:58;100534.22;;;21.57;51.78
48872;BME280;36154;51.674;7.824;2022-10-16T06:54:24;100526.47;;;21.57;51.84
48872;BME280;36154;51.674;7.824;2022-10-16T06:56:51;100532.50;;;21.57;51.62
48872;BME280;36154;51.674;7.824;2022-10-16T06:59:16;100540.28;;;21.57;51.81
48872;BME280;36154;51.674;7.824;2022-10-16T07:01:41;100544.56;;;21.57;51.86
48872;BME280;36154;51.674;7.824;2022-10-16T07:04:07;100545.44;;;21.57;51.69
48872;BME280;36154;51.674;7.824;2022-10-16T07:06:33;100551.47;;;21.58;51.74
48872;BME280;36154;51.674;7.824;2022-10-16T07:09:02;100546.28;;;21.58;51.76
48872;BME280;36154;51.674;7.824;2022-10-16T07:11:28;100561.81;;;21.58;52.26
48872;BME280;36154;51.674;7.824;2022-10-16T07:13:53;100558.34;;;21.59;51.81
48872;BME280;36154;51.674;7.824;2022-10-16T07:16:20;100564.41;;;21.58;51.67
48872;BME280;36154;51.674;7.824;2022-10-16T07:18:46;100559.22;;;21.58;51.83
48872;BME280;36154;51.674;7.824;2022-10-16T07:21:15;100570.41;;;21.58;51.90
48872;BME280;36154;51.674;7.824;2022-10-16T07:23:41;100579.88;;;21.59;51.79
48872;BME280;36154;51.674;7.824;2022-10-16T07:26:07;100579.06;;;21.59;51.73
48872;BME280;36154;51.674;7.824;2022-10-16T07:28:33;100590.25;;;21.59;51.83
48872;BME280;36154;51.674;7.824;2022-10-16T07:31:03;100592.84;;;21.59;51.81
48872;BME280;36154;51.674;7.824;2022-10-16T07:33:29;100601.44;;;21.60;51.75
48872;BME280;36154;51.674;7.824;2022-10-16T07:35:55;100606.63;;;21.60;51.71
48872;BME280;36154;51.674;7.824;2022-10-16T07:38:21;100611.78;;;21.60;51.87
48872;BME280;36154;51.674;7.824;2022-10-16T07:40:46;100616.97;;;21.60;51.64
48872;BME280;36154;51.674;7.824;2022-10-16T07:43:12;100618.69;;;21.61;51.83
48872;BME280;36154;51.674;7.824;2022-10-16T07:45:46;100616.13;;;21.59;51.82
48872;BME280;36154;51.674;7.824;2022-10-16T07:48:12;100621.31;;;21.59;51.43
48872;BME280;36154;51.674;7.824;2022-10-16T07:50:37;100618.72;;;21.59;51.78
48872;BME280;36154;51.674;7.824;2022-10-16T07:53:03;100617.00;;;21.58;51.73
48872;BME280;36154;51.674;7.824;2022-10-16T07:55:28;100626.47;;;21.59;51.78
48872;BME280;36154;51.674;7.824;2022-10-16T07:57:54;100618.72;;;21.59;51.88
48872;BME280;36154;51.674;7.824;2022-10-16T08:00:20;100628.22;;;21.59;51.91
48872;BME280;36154;51.674;7.824;2022-10-16T08:02:45;100633.41;;;21.59;51.93
48872;BME280;36154;51.674;7.824;2022-10-16T08:05:10;100640.31;;;21.58;51.95
48872;BME280;36154;51.674;7.824;2022-10-16T08:07:36;100643.72;;;21.60;51.95
48872;BME280;36154;51.674;7.824;2022-10-16T08:10:01;100647.19;;;21.59;51.89
48872;BME280;36154;51.674;7.824;2022-10-16T08:12:26;100639.47;;;21.58;51.93
48872;BME280;36154;51.674;7.824;2022-10-16T08:14:52;100651.53;;;21.59;51.93
48872;BME280;36154;51.674;7.824;2022-10-16T08:17:17;100650.66;;;21.58;51.94
48872;BME280;36154;51.674;7.824;2022-10-16T08:19:46;100652.38;;;21.59;52.26
48872;BME280;36154;51.674;7.824;2022-10-16T08:22:13;100654.97;;;21.59;51.96
48872;BME280;36154;51.674;7.824;2022-10-16T08:24:38;100670.50;;;21.59;51.83
48872;BME280;36154;51.674;7.824;2022-10-16T08:27:04;100672.25;;;21.59;51.94
48872;BME280;36154;51.674;7.824;2022-10-16T08:29:29;100672.25;;;21.59;51.89
48872;BME280;36154;51.674;7.824;2022-10-16T08:31:54;100676.50;;;21.60;51.95
48872;BME280;36154;51.674;7.824;2022-10-16T08:34:20;100688.59;;;21.59;51.93
48872;BME280;36154;51.674;7.824;2022-10-16T08:36:45;100690.31;;;21.60;51.72
48872;BME280;36154;51.674;7.824;2022-10-16T08:39:10;100698.09;;;21.60;51.85
48872;BME280;36154;51.674;7.824;2022-10-16T08:49:16;100701.56;;;21.59;51.76
48872;BME280;36154;51.674;7.824;2022-10-16T08:51:42;100711.03;;;21.60;51.90
48872;BME280;36154;51.674;7.824;2022-10-16T08:56:55;100706.72;;;21.59;51.70
48872;BME280;36154;51.674;7.824;2022-10-16T08:59:20;100723.97;;;21.60;51.66
48872;BME280;36154;51.674;7.824;2022-10-16T09:01:47;100717.03;;;21.61;51.74
48872;BME280;36154;51.674;7.824;2022-10-16T09:07:24;100725.69;;;21.60;51.74
48872;BME280;36154;51.674;7.824;2022-10-16T09:10:06;100731.72;;;21.60;51.70
48872;BME280;36154;51.674;7.824;2022-10-16T09:13:40;100733.44;;;21.60;51.79
48872;BME280;36154;51.674;7.824;2022-10-16T09:15:37;100729.16;;;21.60;51.90
48872;BME280;36154;51.674;7.824;2022-10-16T09:23:32;100736.91;;;21.60;51.94
48872;BME280;36154;51.674;7.824;2022-10-16T09:25:59;100730.88;;;21.60;51.87
48872;BME280;36154;51.674;7.824;2022-10-16T09:28:25;100736.91;;;21.60;51.86
48872;BME280;36154;51.674;7.824;2022-10-16T09:30:50;100739.50;;;21.60;51.81
48872;BME280;36154;51.674;7.824;2022-10-16T09:33:19;100736.91;;;21.60;51.88
48872;BME280;36154;51.674;7.824;2022-10-16T09:35:53;100738.59;;;21.61;51.87
48872;BME280;36154;51.674;7.824;2022-10-16T09:38:45;100735.16;;;21.61;51.88
48872;BME280;36154;51.674;7.824;2022-10-16T09:41:21;100743.78;;;21.61;51.90
48872;BME280;36154;51.674;7.824;2022-10-16T09:43:57;100742.09;;;21.60;51.86
48872;BME280;36154;51.674;7.824;2022-10-16T09:46:35;100744.63;;;21.62;51.83
48872;BME280;36154;51.674;7.824;2022-10-16T09:49:03;100744.63;;;21.62;51.88
48872;BME280;36154;51.674;7.824;2022-10-16T09:51:30;100752.34;;;21.63;51.97
48872;BME280;36154;51.674;7.824;2022-10-16T09:56:33;100746.25;;;21.66;51.98
48872;BME280;36154;51.674;7.824;2022-10-16T09:59:01;100748.78;;;21.67;51.92
48872;BME280;36154;51.674;7.824;2022-10-16T10:01:49;100753.94;;;21.69;52.12
48872;BME280;36154;51.674;7.824;2022-10-16T10:04:16;100764.25;;;21.71;51.96
48872;BME280;36154;51.674;7.824;2022-10-16T10:06:45;100759.06;;;21.71;52.08
48872;BME280;36154;51.674;7.824;2022-10-16T10:09:26;100769.38;;;21.72;52.07
48872;BME280;36154;51.674;7.824;2022-10-16T10:11:59;100765.13;;;21.70;52.08
48872;BME280;36154;51.674;7.824;2022-10-16T10:14:31;100769.34;;;21.74;51.87
48872;BME280;36154;51.674;7.824;2022-10-16T10:17:18;100766.78;;;21.72;52.02
48872;BME280;36154;51.674;7.824;2022-10-16T10:19:47;100773.66;;;21.73;52.11
48872;BME280;36154;51.674;7.824;2022-10-16T10:25:12;100770.19;;;21.74;52.07
48872;BME280;36154;51.674;7.824;2022-10-16T10:32:58;100783.06;;;21.77;51.85
48872;BME280;36154;51.674;7.824;2022-10-16T10:44:01;100795.03;;;21.80;51.85
48872;BME280;36154;51.674;7.824;2022-10-16T10:52:33;100783.72;;;21.84;51.82
48872;BME280;36154;51.674;7.824;2022-10-16T10:58:04;100791.41;;;21.87;51.93
48872;BME280;36154;51.674;7.824;2022-10-16T11:08:31;100796.41;;;21.93;51.82
48872;BME280;36154;51.674;7.824;2022-10-16T11:11:14;100793.78;;;21.95;52.15
48872;BME280;36154;51.674;7.824;2022-10-16T11:14:00;100791.16;;;21.96;51.96
48872;BME280;36154;51.674;7.824;2022-10-16T11:17:08;100792.84;;;21.97;51.90
48872;BME280;36154;51.674;7.824;2022-10-16T11:22:24;100796.25;;;21.99;51.84
48872;BME280;36154;51.674;7.824;2022-10-16T11:25:04;100791.88;;;22.01;51.74
48872;BME280;36154;51.674;7.824;2022-10-16T11:27:57;100793.56;;;22.02;51.70
48872;BME280;36154;51.674;7.824;2022-10-16T11:30:27;100803.94;;;22.02;51.79
48872;BME280;36154;51.674;7.824;2022-10-16T11:33:04;100797.00;;;22.03;51.82
48872;BME280;36154;51.674;7.824;2022-10-16T11:35:39;100800.38;;;22.05;51.61
48872;BME280;36154;51.674;7.824;2022-10-16T11:41:29;100801.16;;;22.09;51.43
48872;BME280;36154;51.674;7.824;2022-10-16T11:46:28;100796.72;;;22.14;51.42
48872;BME280;36154;51.674;7.824;2022-10-16T11:49:15;100800.06;;;22.17;51.43
48872;BME280;36154;51.674;7.824;2022-10-16T11:51:50;100809.50;;;22.18;51.20
48872;BME280;36154;51.674;7.824;2022-10-16T11:54:27;100802.63;;;22.19;51.46
48872;BME280;36154;51.674;7.824;2022-10-16T11:56:58;100804.28;;;22.20;51.48
48872;BME280;36154;51.674;7.824;2022-10-16T11:59:50;100797.31;;;22.22;51.33
48872;BME280;36154;51.674;7.824;2022-10-16T12:05:23;100799.78;;;22.28;51.28
48872;BME280;36154;51.674;7.824;2022-10-16T12:08:04;100812.66;;;22.31;51.12
48872;BME280;36154;51.674;7.824;2022-10-16T12:10:31;100812.56;;;22.34;51.09
48872;BME280;36154;51.674;7.824;2022-10-16T12:13:02;100812.47;;;22.37;51.16
48872;BME280;36154;51.674;7.824;2022-10-16T12:15:30;100824.44;;;22.41;50.97
48872;BME280;36154;51.674;7.824;2022-10-16T12:17:56;100813.13;;;22.44;50.85
48872;BME280;36154;51.674;7.824;2022-10-16T12:20:32;100812.19;;;22.47;50.94
48872;BME280;36154;51.674;7.824;2022-10-16T12:23:00;100812.09;;;22.50;50.74
48872;BME280;36154;51.674;7.824;2022-10-16T12:25:31;100810.31;;;22.52;50.73
48872;BME280;36154;51.674;7.824;2022-10-16T12:28:26;100807.56;;;22.56;50.68
48872;BME280;36154;51.674;7.824;2022-10-16T12:31:02;100820.41;;;22.61;50.52
48872;BME280;36154;51.674;7.824;2022-10-16T12:33:36;100813.44;;;22.63;50.64
48872;BME280;36154;51.674;7.824;2022-10-16T12:36:10;100815.94;;;22.66;50.39
48872;BME280;36154;51.674;7.824;2022-10-16T12:38:47;100820.97;;;22.71;50.57
48872;BME280;36154;51.674;7.824;2022-10-16T12:41:24;100817.44;;;22.73;50.34
48872;BME280;36154;51.674;7.824;2022-10-16T12:43:51;100822.56;;;22.75;50.36
48872;BME280;36154;51.674;7.824;2022-10-16T12:48:43;100828.59;;;22.75;50.36
48872;BME280;36154;51.674;7.824;2022-10-16T12:56:46;100825.78;;;22.83;50.04
48872;BME280;36154;51.674;7.824;2022-10-16T12:59:41;100836.09;;;22.85;49.90
48872;BME280;36154;51.674;7.824;2022-10-16T13:02:35;100840.38;;;22.86;49.99
48872;BME280;36154;51.674;7.824;2022-10-16T13:10:30;100841.81;;;22.96;49.82
48872;BME280;36154;51.674;7.824;2022-10-16T13:16:12;100838.25;;;22.98;49.74
48872;BME280;36154;51.674;7.824;2022-10-16T13:18:46;100848.69;;;22.97;49.71
48872;BME280;36154;51.674;7.824;2022-10-16T13:24:33;100848.91;;;22.91;49.56
48872;BME280;36154;51.674;7.824;2022-10-16T13:27:13;100846.34;;;22.89;49.63
48872;BME280;36154;51.674;7.824;2022-10-16T13:29:42;100848.94;;;22.89;49.71
48872;BME280;36154;51.674;7.824;2022-10-16T13:32:10;100850.75;;;22.86;49.74
48872;BME280;36154;51.674;7.824;2022-10-16T13:34:45;100847.28;;;22.87;49.82
48872;BME280;36154;51.674;7.824;2022-10-16T13:37:24;100845.47;;;22.89;49.70
48872;BME280;36154;51.674;7.824;2022-10-16T13:39:50;100855.75;;;22.92;49.94
48872;BME280;36154;51.674;7.824;2022-10-16T13:42:27;100853.97;;;22.94;49.75
48872;BME280;36154;51.674;7.824;2022-10-16T13:44:54;100846.88;;;22.99;49.57
48872;BME280;36154;51.674;7.824;2022-10-16T13:47:25;100851.09;;;23.03;49.70
48872;BME280;36154;51.674;7.824;2022-10-16T13:50:34;100849.28;;;23.07;49.67
48872;BME280;36154;51.674;7.824;2022-10-16T13:53:03;100858.72;;;23.09;49.52
48872;BME280;36154;51.674;7.824;2022-10-16T13:55:29;100865.50;;;23.13;49.49
48872;BME280;36154;51.674;7.824;2022-10-16T13:58:04;100861.91;;;23.18;49.32
48872;BME280;36154;51.674;7.824;2022-10-16T14:00:30;100872.09;;;23.24;49.34
48872;BME280;36154;51.674;7.824;2022-10-16T14:03:04;100877.19;;;23.27;49.20
48872;BME280;36154;51.674;7.824;2022-10-16T14:05:32;100879.59;;;23.33;49.02
48872;BME280;36154;51.674;7.824;2022-10-16T14:07:58;100878.59;;;23.37;48.89
48872;BME280;36154;51.674;7.824;2022-10-16T14:10:31;100868.09;;;23.40;48.89
48872;BME280;36154;51.674;7.824;2022-10-16T14:13:04;100874.03;;;23.44;48.99
48872;BME280;36154;51.674;7.824;2022-10-16T14:15:31;100866.09;;;23.48;48.52
48872;BME280;36154;51.674;7.824;2022-10-16T14:17:57;100867.69;;;23.52;48.54
48872;BME280;36154;51.674;7.824;2022-10-16T14:20:28;100860.72;;;23.55;48.64
48872;BME280;36154;51.674;7.824;2022-10-16T14:23:16;100850.47;;;23.50;48.76
48872;BME280;36154;51.674;7.824;2022-10-16T14:25:44;100855.03;;;23.43;48.83
48872;BME280;36154;51.674;7.824;2022-10-16T14:30:35;100856.97;;;23.37;48.95
48872;BME280;36154;51.674;7.824;2022-10-16T14:33:06;100869.94;;;23.37;48.74
48872;BME280;36154;51.674;7.824;2022-10-16T14:35:44;100869.91;;;23.38;48.91
48872;BME280;36154;51.674;7.824;2022-10-16T14:38:19;100862.91;;;23.40;48.89
48872;BME280;36154;51.674;7.824;2022-10-16T14:40:47;100859.28;;;23.44;48.83
48872;BME280;36154;51.674;7.824;2022-10-16T14:43:22;100860.06;;;23.48;48.59